createdAt,value
2023-05-01T00:00:54.442Z,2.50
2023-05-01T00:03:21.708Z,2.65
2023-05-01T00:05:49.103Z,2.25
2023-05-01T00:08:16.270Z,2.50
2023-05-01T00:10:43.357Z,2.45
2023-05-01T00:13:10.824Z,2.53
2023-05-01T00:15:38.010Z,2.30
2023-05-01T00:18:05.378Z,2.47
2023-05-01T00:20:32.603Z,2.40
2023-05-01T00:22:59.752Z,2.53
2023-05-01T00:25:27.014Z,2.60
2023-05-01T00:27:54.449Z,2.40
2023-05-01T00:30:21.640Z,2.35
2023-05-01T00:32:48.848Z,2.28
2023-05-01T00:35:16.643Z,2.28
2023-05-01T00:37:43.759Z,2.72
2023-05-01T00:40:11.294Z,2.83
2023-05-01T00:42:39.910Z,2.70
2023-05-01T00:45:07.910Z,2.78
2023-05-01T00:47:38.157Z,2.58
2023-05-01T00:50:08.850Z,2.50
2023-05-01T00:52:36.254Z,2.60
2023-05-01T00:55:03.475Z,2.83
2023-05-01T00:57:30.578Z,2.22
2023-05-01T00:59:57.965Z,2.63
2023-05-01T01:02:27.115Z,2.45
2023-05-01T01:04:54.447Z,2.60
2023-05-01T01:07:25.091Z,2.42
2023-05-01T01:10:01.150Z,2.55
2023-05-01T01:12:32.864Z,2.60
2023-05-01T01:15:05.961Z,2.25
2023-05-01T01:17:37.806Z,2.92
2023-05-01T01:20:15.241Z,2.78
2023-05-01T01:22:44.544Z,2.30
2023-05-01T01:25:28.076Z,2.63
2023-05-01T01:28:07.523Z,2.85
2023-05-01T01:30:53.112Z,2.78
2023-05-01T01:33:23.952Z,2.38
2023-05-01T01:35:58.408Z,2.38
2023-05-01T01:38:46.758Z,2.40
2023-05-01T01:41:17.183Z,2.72
2023-05-01T01:43:51.108Z,2.95
2023-05-01T01:46:20.526Z,2.50
2023-05-01T01:48:49.768Z,2.80
2023-05-01T01:51:18.999Z,2.90
2023-05-01T01:53:47.361Z,2.70
2023-05-01T01:56:15.601Z,2.78
2023-05-01T01:58:43.911Z,2.53
2023-05-01T02:01:11.228Z,2.65
2023-05-01T02:03:39.383Z,2.83
2023-05-01T02:06:07.486Z,2.35
2023-05-01T02:08:35.918Z,2.60
2023-05-01T02:11:03.618Z,2.83
2023-05-01T02:13:31.639Z,2.40
2023-05-01T02:16:03.236Z,3.10
2023-05-01T02:18:30.535Z,3.15
2023-05-01T02:20:58.692Z,3.15
2023-05-01T02:23:27.772Z,2.83
2023-05-01T02:25:56.022Z,3.20
2023-05-01T02:28:24.364Z,3.15
2023-05-01T02:30:52.605Z,2.80
2023-05-01T02:33:19.755Z,3.33
2023-05-01T02:35:47.491Z,3.03
2023-05-01T02:38:15.725Z,2.90
2023-05-01T02:40:47.448Z,2.88
2023-05-01T02:43:16.270Z,2.80
2023-05-01T02:48:11.640Z,2.83
2023-05-01T02:50:40.790Z,2.72
2023-05-01T02:53:08.689Z,2.33
2023-05-01T02:55:36.089Z,2.90
2023-05-01T02:58:03.259Z,2.95
2023-05-01T03:00:30.469Z,2.90
2023-05-01T03:02:58.280Z,3.20
2023-05-01T03:05:25.491Z,3.13
2023-05-01T03:07:52.841Z,3.00
2023-05-01T03:10:20.140Z,3.15
2023-05-01T03:12:47.297Z,3.22
2023-05-01T03:15:14.417Z,2.90
2023-05-01T03:17:41.796Z,2.90
2023-05-01T03:20:10.963Z,2.90
2023-05-01T03:22:38.181Z,2.90
2023-05-01T03:25:05.456Z,3.15
2023-05-01T03:27:32.800Z,3.38
2023-05-01T03:29:59.937Z,3.28
2023-05-01T03:32:29.611Z,2.88
2023-05-01T03:38:44.506Z,3.10
2023-05-01T03:41:11.691Z,3.15
2023-05-01T03:43:38.820Z,3.30
2023-05-01T03:46:06.735Z,3.05
2023-05-01T03:48:33.947Z,3.42
2023-05-01T03:51:01.941Z,3.22
2023-05-01T03:53:29.204Z,3.70
2023-05-01T03:55:56.511Z,3.28
2023-05-01T03:58:23.620Z,2.97
2023-05-01T04:04:19.730Z,3.90
2023-05-01T04:06:48.714Z,3.80
2023-05-01T04:09:16.447Z,3.00
2023-05-01T04:11:43.645Z,3.22
2023-05-01T04:14:10.741Z,3.30
2023-05-01T04:16:38.023Z,3.42
2023-05-01T04:19:05.173Z,3.20
2023-05-01T04:21:32.282Z,2.92
2023-05-01T04:23:59.383Z,3.00
2023-05-01T04:26:26.847Z,3.13
2023-05-01T04:28:54.145Z,3.25
2023-05-01T04:31:21.314Z,3.22
2023-05-01T04:33:48.438Z,2.90
2023-05-01T04:36:15.565Z,3.22
2023-05-01T04:38:42.715Z,3.15
2023-05-01T04:41:09.964Z,3.15
2023-05-01T04:43:37.132Z,3.45
2023-05-01T04:46:05.101Z,3.03
2023-05-01T04:48:32.302Z,3.53
2023-05-01T04:50:59.638Z,3.28
2023-05-01T04:53:26.973Z,3.13
2023-05-01T04:55:54.105Z,3.58
2023-05-01T04:58:21.404Z,2.80
2023-05-01T05:00:48.563Z,2.83
2023-05-01T05:03:18.965Z,2.95
2023-05-01T05:05:49.216Z,3.88
2023-05-01T05:08:16.411Z,3.20
2023-05-01T05:10:43.546Z,3.42
2023-05-01T05:13:10.820Z,3.17
2023-05-01T05:15:38.126Z,3.45
2023-05-01T05:18:05.305Z,3.25
2023-05-01T05:20:32.442Z,3.95
2023-05-01T05:22:59.541Z,3.50
2023-05-01T05:25:26.721Z,3.38
2023-05-01T05:27:54.169Z,3.50
2023-05-01T05:30:21.746Z,3.40
2023-05-01T05:32:49.008Z,3.30
2023-05-01T05:35:16.461Z,3.45
2023-05-01T05:37:45.959Z,3.30
2023-05-01T05:40:13.628Z,3.67
2023-05-01T05:42:41.169Z,3.90
2023-05-01T05:45:08.644Z,3.33
2023-05-01T05:47:35.844Z,3.80
2023-05-01T05:50:03.012Z,3.40
2023-05-01T05:52:30.264Z,3.50
2023-05-01T05:54:57.418Z,3.47
2023-05-01T05:57:24.843Z,3.80
2023-05-01T05:59:52.044Z,3.53
2023-05-01T06:02:19.404Z,3.88
2023-05-01T06:04:46.618Z,3.38
2023-05-01T06:07:13.765Z,3.90
2023-05-01T06:09:41.056Z,3.50
2023-05-01T06:12:08.256Z,3.55
2023-05-01T06:14:35.453Z,3.15
2023-05-01T06:17:02.658Z,3.83
2023-05-01T06:19:30.006Z,3.55
2023-05-01T06:21:57.184Z,3.40
2023-05-01T06:24:24.383Z,3.40
2023-05-01T06:26:51.534Z,4.03
2023-05-01T06:29:18.732Z,3.78
2023-05-01T06:31:46.004Z,3.58
2023-05-01T06:34:13.265Z,3.60
2023-05-01T06:36:40.512Z,3.33
2023-05-01T06:39:07.671Z,3.42
2023-05-01T06:41:36.102Z,3.40
2023-05-01T06:44:03.236Z,3.38
2023-05-01T06:46:30.938Z,3.15
2023-05-01T06:48:58.212Z,4.30
2023-05-01T06:51:25.931Z,3.58
2023-05-01T06:53:53.156Z,3.60
2023-05-01T06:56:21.598Z,3.42
2023-05-01T06:58:48.736Z,3.53
2023-05-01T07:01:16.476Z,3.90
2023-05-01T07:03:43.934Z,3.83
2023-05-01T07:06:11.425Z,3.75
2023-05-01T07:08:38.735Z,3.70
2023-05-01T07:11:05.929Z,3.80
2023-05-01T07:13:33.151Z,3.55
2023-05-01T07:16:01.641Z,3.70
2023-05-01T07:18:29.503Z,4.30
2023-05-01T07:20:56.648Z,3.92
2023-05-01T07:23:25.396Z,4.78
2023-05-01T07:25:53.334Z,3.90
2023-05-01T07:28:21.852Z,3.60
2023-05-01T07:30:49.059Z,3.70
2023-05-01T07:33:16.519Z,4.00
2023-05-01T07:35:43.939Z,4.10
2023-05-01T07:38:11.188Z,4.60
2023-05-01T07:40:38.613Z,4.10
2023-05-01T07:43:07.309Z,4.00
2023-05-01T07:45:34.924Z,4.10
2023-05-01T07:48:02.095Z,4.57
2023-05-01T07:50:29.405Z,4.00
2023-05-01T07:52:56.572Z,4.28
2023-05-01T07:55:24.082Z,4.30
2023-05-01T07:57:51.331Z,4.63
2023-05-01T08:00:21.741Z,4.50
2023-05-01T08:02:49.201Z,4.50
2023-05-01T08:05:16.365Z,4.20
2023-05-01T08:07:43.482Z,4.50
2023-05-01T08:10:10.759Z,4.13
2023-05-01T08:12:38.068Z,4.43
2023-05-01T08:15:05.729Z,4.25
2023-05-01T08:17:32.890Z,4.13
2023-05-01T08:20:01.466Z,4.25
2023-05-01T08:29:50.127Z,4.15
2023-05-01T08:32:19.927Z,4.15
2023-05-01T08:34:47.053Z,4.57
2023-05-01T08:37:14.654Z,4.13
2023-05-01T08:39:41.865Z,4.43
2023-05-01T08:42:09.000Z,4.18
2023-05-01T08:44:39.757Z,3.80
2023-05-01T08:47:16.465Z,4.00
2023-05-01T08:49:44.021Z,4.35
2023-05-01T08:52:15.019Z,4.32
2023-05-01T08:54:47.042Z,4.10
2023-05-01T08:57:14.240Z,4.50
2023-05-01T08:59:42.034Z,3.75
2023-05-01T09:02:10.387Z,4.03
2023-05-01T09:04:39.016Z,4.07
2023-05-01T09:07:06.301Z,4.30
2023-05-01T09:09:34.029Z,4.05
2023-05-01T09:12:21.403Z,3.78
2023-05-01T09:14:48.574Z,4.15
2023-05-01T09:17:16.066Z,3.58
2023-05-01T09:19:43.313Z,3.40
2023-05-01T09:22:10.713Z,3.65
2023-05-01T09:24:38.033Z,3.75
2023-05-01T09:27:06.695Z,3.47
2023-05-01T09:29:44.502Z,3.60
2023-05-01T09:32:15.176Z,3.38
2023-05-01T09:34:43.628Z,3.60
2023-05-01T09:39:39.060Z,3.20
2023-05-01T09:42:06.491Z,3.35
2023-05-01T09:44:47.521Z,4.32
2023-05-01T09:47:22.946Z,3.15
2023-05-01T09:49:50.426Z,3.42
2023-05-01T09:52:17.526Z,2.85
2023-05-01T09:54:44.683Z,3.08
2023-05-01T09:57:11.970Z,3.25
2023-05-01T09:59:39.289Z,2.90
2023-05-01T10:02:06.550Z,3.03
2023-05-01T10:04:36.575Z,2.50
2023-05-01T10:07:15.818Z,2.72
2023-05-01T10:09:43.020Z,2.50
2023-05-01T10:12:10.135Z,2.45
2023-05-01T10:14:50.526Z,2.83
2023-05-01T10:17:19.893Z,2.85
2023-05-01T10:19:47.631Z,2.67
2023-05-01T10:22:14.858Z,2.50
2023-05-01T10:24:43.101Z,2.58
2023-05-01T10:27:10.488Z,2.58
2023-05-01T10:29:38.242Z,2.45
2023-05-01T10:32:07.603Z,2.30
2023-05-01T10:34:46.000Z,2.70
2023-05-01T10:37:23.435Z,2.80
2023-05-01T10:39:50.828Z,2.47
2023-05-01T10:42:18.479Z,2.30
2023-05-01T10:44:47.987Z,2.30
2023-05-01T10:47:27.789Z,2.53
2023-05-01T10:50:10.311Z,3.83
2023-05-01T10:52:56.244Z,3.20
2023-05-01T10:55:33.679Z,3.60
2023-05-01T10:58:01.014Z,3.22
2023-05-01T11:00:28.107Z,3.35
2023-05-01T11:03:13.921Z,3.35
2023-05-01T11:06:00.377Z,3.90
2023-05-01T11:08:32.199Z,3.47
2023-05-01T11:11:01.830Z,3.33
2023-05-01T11:14:04.455Z,3.50
2023-05-01T11:16:41.806Z,3.50
2023-05-01T11:19:18.500Z,3.58
2023-05-01T11:21:45.794Z,3.85
2023-05-01T11:24:13.216Z,2.33
2023-05-01T11:26:42.251Z,3.38
2023-05-01T11:29:10.889Z,3.88
2023-05-01T11:31:38.582Z,3.85
2023-05-01T11:34:08.957Z,3.05
2023-05-01T11:37:02.567Z,3.35
2023-05-01T11:39:29.914Z,3.65
2023-05-01T11:42:12.191Z,3.70
2023-05-01T11:44:39.502Z,3.30
2023-05-01T11:47:09.108Z,3.38
2023-05-01T11:49:36.419Z,3.67
2023-05-01T11:52:03.595Z,4.20
2023-05-01T11:54:30.978Z,3.75
2023-05-01T11:57:00.012Z,3.55
2023-05-01T11:59:28.443Z,3.72
2023-05-01T12:01:55.779Z,4.18
2023-05-01T12:04:32.453Z,4.05
2023-05-01T12:07:00.034Z,4.63
2023-05-01T12:09:27.569Z,5.20
2023-05-01T12:11:55.008Z,4.35
2023-05-01T12:14:24.344Z,4.70
2023-05-01T12:16:51.671Z,5.25
2023-05-01T12:19:19.622Z,5.25
2023-05-01T12:21:47.697Z,5.07
2023-05-01T12:24:16.426Z,4.40
2023-05-01T12:26:44.544Z,4.95
2023-05-01T12:29:12.165Z,4.72
2023-05-01T12:31:57.514Z,4.65
2023-05-01T12:34:33.450Z,4.63
2023-05-01T12:37:00.754Z,4.15
2023-05-01T12:39:38.351Z,5.18
2023-05-01T12:42:12.186Z,4.28
2023-05-01T12:44:39.653Z,4.55
2023-05-01T12:47:08.081Z,4.55
2023-05-01T12:52:06.294Z,4.75
2023-05-01T12:54:40.682Z,4.45
2023-05-01T12:57:11.930Z,5.05
2023-05-01T12:59:40.012Z,5.22
2023-05-01T13:02:26.351Z,4.90
2023-05-01T13:05:09.819Z,5.80
2023-05-01T13:07:37.384Z,4.85
2023-05-01T13:10:06.252Z,6.07
2023-05-01T13:12:34.137Z,5.60
2023-05-01T13:15:01.501Z,5.20
2023-05-01T13:17:28.735Z,5.72
2023-05-01T13:20:00.597Z,5.47
2023-05-01T13:22:38.683Z,5.10
2023-05-01T13:25:17.317Z,5.80
2023-05-01T13:27:51.235Z,4.55
2023-05-01T13:30:22.373Z,4.95
2023-05-01T13:32:49.946Z,4.90
2023-05-01T13:35:27.476Z,4.70
2023-05-01T13:37:54.803Z,4.90
2023-05-01T13:40:22.224Z,4.60
2023-05-01T13:42:52.674Z,4.80
2023-05-01T13:45:23.364Z,5.00
2023-05-01T13:47:55.285Z,4.63
2023-05-01T13:50:22.648Z,4.88
2023-05-01T13:52:49.808Z,4.60
2023-05-01T13:55:17.867Z,4.75
2023-05-01T13:57:45.186Z,4.30
2023-05-01T14:00:19.281Z,4.72
2023-05-01T14:02:48.867Z,4.63
2023-05-01T14:05:16.795Z,4.68
2023-05-01T14:07:51.982Z,2.90
2023-05-01T14:10:19.676Z,4.63
2023-05-01T14:12:46.921Z,4.35
2023-05-01T14:15:14.252Z,3.83
2023-05-01T14:17:41.473Z,4.38
2023-05-01T14:20:08.887Z,4.20
2023-05-01T14:22:39.329Z,4.28
2023-05-01T14:25:07.292Z,3.22
2023-05-01T14:27:34.446Z,4.57
2023-05-01T14:30:01.653Z,4.03
2023-05-01T14:32:29.962Z,4.25
2023-05-01T14:37:24.817Z,4.60
2023-05-01T14:39:51.919Z,4.53
2023-05-01T14:42:19.080Z,4.20
2023-05-01T14:44:46.275Z,3.85
2023-05-01T14:47:14.985Z,4.53
2023-05-01T14:49:44.707Z,4.25
2023-05-01T14:52:14.018Z,3.50
2023-05-01T14:54:46.363Z,3.95
2023-05-01T14:57:13.618Z,4.30
2023-05-01T14:59:41.856Z,3.42
2023-05-01T15:02:09.454Z,4.40
2023-05-01T15:04:36.907Z,3.60
2023-05-01T15:07:04.334Z,4.53
2023-05-01T15:09:34.420Z,4.75
2023-05-01T15:12:04.532Z,4.90
2023-05-01T15:14:32.829Z,4.40
2023-05-01T15:17:00.026Z,4.60
2023-05-01T15:19:27.263Z,5.07
2023-05-01T15:21:54.383Z,4.25
2023-05-01T15:24:23.087Z,4.15
2023-05-01T15:26:50.552Z,4.43
2023-05-01T15:29:17.923Z,3.58
2023-05-01T15:31:45.179Z,2.53
2023-05-01T15:34:12.319Z,3.78
2023-05-01T15:36:39.520Z,4.18
2023-05-01T15:39:11.763Z,4.35
2023-05-01T15:41:39.465Z,5.20
2023-05-01T15:44:08.015Z,4.80
2023-05-01T15:46:35.390Z,4.30
2023-05-01T15:49:02.684Z,5.05
2023-05-01T15:51:32.876Z,4.93
2023-05-01T15:54:00.571Z,4.47
2023-05-01T15:56:27.885Z,4.20
2023-05-01T15:58:55.184Z,4.68
2023-05-01T16:01:22.392Z,4.63
2023-05-01T16:03:49.898Z,4.75
2023-05-01T16:06:17.295Z,4.72
2023-05-01T16:08:44.779Z,4.55
2023-05-01T16:11:12.926Z,4.60
2023-05-01T16:13:40.772Z,5.10
2023-05-01T16:19:30.750Z,5.25
2023-05-01T16:21:57.932Z,5.00
2023-05-01T16:24:25.182Z,5.55
2023-05-01T16:26:53.033Z,4.57
2023-05-01T16:29:20.378Z,5.88
2023-05-01T16:31:47.782Z,5.28
2023-05-01T16:34:18.011Z,3.33
2023-05-01T16:36:47.019Z,5.30
2023-05-01T16:39:15.563Z,5.13
2023-05-01T16:41:46.823Z,4.30
2023-05-01T16:44:16.137Z,6.00
2023-05-01T16:46:52.107Z,5.90
2023-05-01T16:49:19.317Z,5.80
2023-05-01T16:51:46.531Z,6.40
2023-05-01T16:54:13.803Z,6.90
2023-05-01T16:56:41.101Z,5.00
2023-05-01T16:59:08.326Z,4.95
2023-05-01T17:01:36.036Z,5.40
2023-05-01T17:04:03.484Z,4.47
2023-05-01T17:06:31.390Z,6.05
2023-05-01T17:08:58.628Z,5.45
2023-05-01T17:11:26.207Z,6.38
2023-05-01T17:13:53.408Z,5.75
2023-05-01T17:16:20.680Z,7.05
2023-05-01T17:18:48.034Z,5.38
2023-05-01T17:21:15.250Z,6.93
2023-05-01T17:23:42.389Z,7.13
2023-05-01T17:26:09.586Z,6.80
2023-05-01T17:28:36.860Z,4.70
2023-05-01T17:31:04.038Z,8.02
2023-05-01T17:33:31.350Z,6.47
2023-05-01T17:36:00.674Z,7.32
2023-05-01T17:38:28.005Z,6.70
2023-05-01T17:40:55.199Z,6.97
2023-05-01T17:43:22.380Z,7.18
2023-05-01T17:45:50.170Z,6.90
2023-05-01T17:48:19.619Z,6.63
2023-05-01T17:50:47.499Z,7.57
2023-05-01T17:53:17.868Z,7.47
2023-05-01T17:55:45.043Z,6.85
2023-05-01T17:58:12.913Z,8.30
2023-05-01T18:00:40.545Z,7.82
2023-05-01T18:03:09.020Z,6.43
2023-05-01T18:08:06.301Z,7.65
2023-05-01T18:10:33.928Z,9.40
2023-05-01T18:13:01.766Z,9.10
2023-05-01T18:15:28.957Z,8.48
2023-05-01T18:17:56.678Z,9.68
2023-05-01T18:20:23.955Z,11.45
2023-05-01T18:22:51.624Z,10.07
2023-05-01T18:25:20.153Z,9.30
2023-05-01T18:32:48.328Z,10.13
2023-05-01T18:35:19.488Z,11.32
2023-05-01T18:37:47.029Z,11.98
2023-05-01T18:40:14.277Z,12.10
2023-05-01T18:42:42.283Z,11.45
2023-05-01T18:45:10.292Z,11.38
2023-05-01T18:47:37.653Z,11.60
2023-05-01T18:50:06.200Z,12.57
2023-05-01T18:52:33.499Z,13.02
2023-05-01T18:55:00.923Z,13.25
2023-05-01T18:57:28.701Z,14.65
2023-05-01T18:59:55.965Z,13.63
2023-05-01T19:02:23.208Z,13.82
2023-05-01T19:04:57.460Z,13.82
2023-05-01T19:07:26.317Z,13.10
2023-05-01T19:09:54.050Z,14.25
2023-05-01T19:12:21.441Z,14.60
2023-05-01T19:14:48.594Z,13.73
2023-05-01T19:17:15.785Z,14.63
2023-05-01T19:19:44.593Z,13.73
2023-05-01T19:22:11.775Z,15.65
2023-05-01T19:24:38.976Z,14.43
2023-05-01T19:27:06.178Z,14.77
2023-05-01T19:29:33.575Z,16.38
2023-05-01T19:32:00.835Z,16.23
2023-05-01T19:34:28.534Z,16.35
2023-05-01T19:37:00.281Z,16.35
2023-05-01T19:39:29.250Z,17.48
2023-05-01T19:41:56.544Z,17.02
2023-05-01T19:44:24.019Z,16.95
2023-05-01T19:46:51.210Z,15.95
2023-05-01T19:49:18.487Z,17.30
2023-05-01T19:51:46.026Z,17.90
2023-05-01T19:54:13.194Z,18.73
2023-05-01T19:56:40.489Z,18.63
2023-05-01T19:59:07.673Z,18.85
2023-05-01T20:01:34.890Z,19.20
2023-05-01T20:04:02.620Z,19.70
2023-05-01T20:06:29.800Z,17.95
2023-05-01T20:08:57.304Z,19.17
2023-05-01T20:11:24.548Z,19.48
2023-05-01T20:13:51.707Z,17.42
2023-05-01T20:16:18.968Z,15.57
2023-05-01T20:18:46.339Z,16.33
2023-05-01T20:21:13.517Z,19.98
2023-05-01T20:26:55.917Z,16.17
2023-05-01T20:29:23.372Z,17.50
2023-05-01T20:31:51.520Z,16.13
2023-05-01T20:34:19.363Z,15.50
2023-05-01T20:36:46.513Z,14.40
2023-05-01T20:39:13.743Z,15.40
2023-05-01T20:41:40.999Z,16.55
2023-05-01T20:44:08.989Z,12.95
2023-05-01T20:46:36.217Z,13.70
2023-05-01T20:49:05.552Z,15.95
2023-05-01T20:51:32.777Z,16.60
2023-05-01T20:53:59.918Z,15.98
2023-05-01T20:56:27.069Z,15.57
2023-05-01T20:58:54.738Z,10.27
2023-05-01T21:01:22.037Z,13.05
2023-05-01T21:03:49.358Z,13.77
2023-05-01T21:06:16.664Z,13.73
2023-05-01T21:08:43.873Z,14.02
2023-05-01T21:11:11.120Z,14.20
2023-05-01T21:13:38.357Z,13.95
2023-05-01T21:16:27.692Z,14.75
2023-05-01T21:18:54.956Z,13.65
2023-05-01T21:21:22.307Z,14.02
2023-05-01T21:23:49.467Z,15.13
2023-05-01T21:26:16.628Z,14.10
2023-05-01T21:28:43.884Z,14.40
2023-05-01T21:31:14.586Z,14.80
2023-05-01T21:33:45.694Z,15.30
2023-05-01T21:36:14.002Z,14.55
2023-05-01T21:38:41.099Z,14.50
2023-05-01T21:41:09.033Z,15.82
2023-05-01T21:43:36.490Z,15.77
2023-05-01T21:46:03.652Z,15.15
2023-05-01T21:48:33.608Z,16.10
2023-05-01T21:51:00.842Z,15.98
2023-05-01T21:53:29.883Z,16.27
2023-05-01T21:55:57.043Z,15.55
2023-05-01T21:58:25.250Z,17.08
2023-05-01T22:00:52.625Z,17.23
2023-05-01T22:03:20.179Z,17.75
2023-05-01T22:05:47.423Z,17.10
2023-05-01T22:08:14.554Z,14.93
2023-05-01T22:10:43.023Z,17.88
2023-05-01T22:13:11.429Z,16.55
2023-05-01T22:15:38.623Z,15.50
2023-05-01T22:18:05.853Z,17.27
2023-05-01T22:20:33.006Z,17.42
2023-05-01T22:23:00.176Z,17.45
2023-05-01T22:25:28.543Z,13.93
2023-05-01T22:27:55.656Z,14.85
2023-05-01T22:30:22.734Z,15.57
2023-05-01T22:32:49.928Z,16.33
2023-05-01T22:35:17.076Z,16.02
2023-05-01T22:37:44.222Z,16.40
2023-05-01T22:40:11.523Z,15.02
2023-05-01T22:42:38.743Z,14.38
2023-05-01T22:45:07.066Z,15.85
2023-05-01T22:47:34.393Z,14.23
2023-05-01T22:50:01.923Z,12.57
2023-05-01T22:52:29.342Z,13.68
2023-05-01T22:54:56.467Z,10.40
2023-05-01T22:57:23.658Z,9.50
2023-05-01T22:59:50.951Z,11.82
2023-05-01T23:02:19.061Z,13.48
2023-05-01T23:04:46.436Z,13.48
2023-05-01T23:07:16.373Z,12.70
2023-05-01T23:09:43.621Z,13.57
2023-05-01T23:12:16.399Z,12.45
2023-05-01T23:14:45.774Z,11.45
2023-05-01T23:17:16.311Z,11.63
2023-05-01T23:19:44.502Z,12.48
2023-05-01T23:22:14.726Z,11.88
2023-05-01T23:24:44.435Z,14.13
2023-05-01T23:27:13.500Z,10.48
2023-05-01T23:29:40.955Z,15.98
2023-05-01T23:32:19.149Z,11.73
2023-05-01T23:34:46.495Z,11.77
2023-05-01T23:37:13.613Z,14.30
2023-05-01T23:39:40.755Z,14.55
2023-05-01T23:42:08.092Z,13.05
2023-05-01T23:44:35.214Z,14.75
2023-05-01T23:47:02.430Z,13.40
2023-05-01T23:49:29.612Z,13.07
2023-05-01T23:51:56.915Z,14.23
2023-05-01T23:54:24.087Z,13.23
2023-05-01T23:56:51.527Z,13.18
2023-05-01T23:59:19.008Z,12.68
